sensor_id;sensor_type;location;lat;lon;timestamp;P1;durP1;ratioP1;P2;durP2;ratioP2
6149;SDS011;3106;42.670;23.318;2023-02-28T00:01:30;35.27;;;16.20;;
6149;SDS011;3106;42.670;23.318;2023-02-28T00:03:57;37.70;;;16.30;;
6149;SDS011;3106;42.670;23.318;2023-02-28T00:06:24;39.57;;;15.57;;
6149;SDS011;3106;42.670;23.318;2023-02-28T00:08:51;35.30;;;15.77;;
6149;SDS011;3106;42.670;23.318;2023-02-28T00:11:19;29.73;;;14.53;;
6149;SDS011;3106;42.670;23.318;2023-02-28T00:13:46;36.07;;;16.63;;
6149;SDS011;3106;42.670;23.318;2023-02-28T00:16:14;40.13;;;16.50;;
6149;SDS011;3106;42.670;23.318;2023-02-28T00:18:42;34.40;;;15.80;;
6149;SDS011;3106;42.670;23.318;2023-02-28T00:21:09;32.77;;;14.90;;
6149;SDS011;3106;42.670;23.318;2023-02-28T00:23:36;32.00;;;14.10;;
6149;SDS011;3106;42.670;23.318;2023-02-28T00:26:03;31.37;;;13.97;;
6149;SDS011;3106;42.670;23.318;2023-02-28T00:28:32;32.60;;;13.70;;
6149;SDS011;3106;42.670;23.318;2023-02-28T00:30:59;29.53;;;14.90;;
6149;SDS011;3106;42.670;23.318;2023-02-28T00:33:26;29.80;;;13.60;;
6149;SDS011;3106;42.670;23.318;2023-02-28T00:36:00;35.20;;;14.70;;
6149;SDS011;3106;42.670;23.318;2023-02-28T00:38:28;26.53;;;14.27;;
6149;SDS011;3106;42.670;23.318;2023-02-28T00:40:55;29.50;;;13.90;;
6149;SDS011;3106;42.670;23.318;2023-02-28T00:43:23;31.63;;;14.60;;
6149;SDS011;3106;42.670;23.318;2023-02-28T00:45:51;32.00;;;14.70;;
6149;SDS011;3106;42.670;23.318;2023-02-28T00:48:18;32.03;;;14.50;;
6149;SDS011;3106;42.670;23.318;2023-02-28T00:50:47;36.73;;;14.80;;
6149;SDS011;3106;42.670;23.318;2023-02-28T00:53:14;29.83;;;13.90;;
6149;SDS011;3106;42.670;23.318;2023-02-28T00:55:41;36.00;;;16.13;;
6149;SDS011;3106;42.670;23.318;2023-02-28T00:58:08;29.67;;;14.27;;
6149;SDS011;3106;42.670;23.318;2023-02-28T01:00:35;35.73;;;15.30;;
6149;SDS011;3106;42.670;23.318;2023-02-28T01:03:03;35.60;;;15.67;;
6149;SDS011;3106;42.670;23.318;2023-02-28T01:05:30;37.03;;;15.97;;
6149;SDS011;3106;42.670;23.318;2023-02-28T01:07:56;45.83;;;16.50;;
6149;SDS011;3106;42.670;23.318;2023-02-28T01:10:24;35.53;;;14.97;;
6149;SDS011;3106;42.670;23.318;2023-02-28T01:12:56;35.37;;;15.40;;
6149;SDS011;3106;42.670;23.318;2023-02-28T01:15:23;29.60;;;13.77;;
6149;SDS011;3106;42.670;23.318;2023-02-28T01:17:50;35.77;;;15.90;;
6149;SDS011;3106;42.670;23.318;2023-02-28T01:20:18;38.83;;;17.33;;
6149;SDS011;3106;42.670;23.318;2023-02-28T01:22:45;37.77;;;17.70;;
6149;SDS011;3106;42.670;23.318;2023-02-28T01:25:12;40.10;;;17.90;;
6149;SDS011;3106;42.670;23.318;2023-02-28T01:27:39;41.23;;;18.13;;
6149;SDS011;3106;42.670;23.318;2023-02-28T01:30:06;39.47;;;17.23;;
6149;SDS011;3106;42.670;23.318;2023-02-28T01:32:37;43.90;;;19.30;;
6149;SDS011;3106;42.670;23.318;2023-02-28T01:35:04;37.43;;;17.30;;
6149;SDS011;3106;42.670;23.318;2023-02-28T01:37:33;47.57;;;20.20;;
6149;SDS011;3106;42.670;23.318;2023-02-28T01:39:59;44.27;;;18.90;;
6149;SDS011;3106;42.670;23.318;2023-02-28T01:42:26;46.80;;;19.13;;
6149;SDS011;3106;42.670;23.318;2023-02-28T01:45:01;49.30;;;19.53;;
6149;SDS011;3106;42.670;23.318;2023-02-28T01:47:32;51.03;;;21.40;;
6149;SDS011;3106;42.670;23.318;2023-02-28T01:50:01;53.87;;;22.50;;
6149;SDS011;3106;42.670;23.318;2023-02-28T01:52:30;47.27;;;20.27;;
6149;SDS011;3106;42.670;23.318;2023-02-28T01:55:00;51.83;;;22.00;;
6149;SDS011;3106;42.670;23.318;2023-02-28T01:57:32;57.20;;;23.87;;
6149;SDS011;3106;42.670;23.318;2023-02-28T02:00:04;47.03;;;22.07;;
6149;SDS011;3106;42.670;23.318;2023-02-28T02:02:34;56.40;;;23.33;;
6149;SDS011;3106;42.670;23.318;2023-02-28T02:05:03;48.47;;;22.77;;
6149;SDS011;3106;42.670;23.318;2023-02-28T02:07:32;55.03;;;23.40;;
6149;SDS011;3106;42.670;23.318;2023-02-28T02:10:04;48.87;;;21.70;;
6149;SDS011;3106;42.670;23.318;2023-02-28T02:12:37;45.47;;;20.80;;
6149;SDS011;3106;42.670;23.318;2023-02-28T02:15:19;42.77;;;19.97;;
6149;SDS011;3106;42.670;23.318;2023-02-28T02:17:52;47.60;;;21.07;;
6149;SDS011;3106;42.670;23.318;2023-02-28T02:26:30;44.57;;;20.70;;
6149;SDS011;3106;42.670;23.318;2023-02-28T02:32:14;52.07;;;22.70;;
6149;SDS011;3106;42.670;23.318;2023-02-28T02:34:54;56.73;;;24.17;;
6149;SDS011;3106;42.670;23.318;2023-02-28T02:37:29;56.27;;;24.03;;
6149;SDS011;3106;42.670;23.318;2023-02-28T02:40:07;54.47;;;23.10;;
6149;SDS011;3106;42.670;23.318;2023-02-28T02:42:41;48.37;;;20.80;;
6149;SDS011;3106;42.670;23.318;2023-02-28T02:45:13;55.80;;;22.83;;
6149;SDS011;3106;42.670;23.318;2023-02-28T02:47:45;52.57;;;22.80;;
6149;SDS011;3106;42.670;23.318;2023-02-28T02:50:15;53.10;;;23.73;;
6149;SDS011;3106;42.670;23.318;2023-02-28T02:52:46;75.73;;;26.07;;
6149;SDS011;3106;42.670;23.318;2023-02-28T02:55:17;72.17;;;26.17;;
6149;SDS011;3106;42.670;23.318;2023-02-28T02:57:47;71.63;;;24.73;;
6149;SDS011;3106;42.670;23.318;2023-02-28T03:00:17;86.67;;;27.47;;
6149;SDS011;3106;42.670;23.318;2023-02-28T03:02:49;69.50;;;27.10;;
6149;SDS011;3106;42.670;23.318;2023-02-28T03:05:21;104.37;;;27.20;;
6149;SDS011;3106;42.670;23.318;2023-02-28T03:07:52;109.67;;;28.13;;
6149;SDS011;3106;42.670;23.318;2023-02-28T03:10:26;83.93;;;26.87;;
6149;SDS011;3106;42.670;23.318;2023-02-28T03:12:59;91.13;;;27.20;;
6149;SDS011;3106;42.670;23.318;2023-02-28T03:15:36;91.23;;;26.00;;
6149;SDS011;3106;42.670;23.318;2023-02-28T03:18:14;102.10;;;25.93;;
6149;SDS011;3106;42.670;23.318;2023-02-28T03:20:52;81.27;;;28.00;;
6149;SDS011;3106;42.670;23.318;2023-02-28T03:23:28;89.53;;;28.47;;
6149;SDS011;3106;42.670;23.318;2023-02-28T03:26:06;65.80;;;24.67;;
6149;SDS011;3106;42.670;23.318;2023-02-28T03:28:41;98.37;;;26.40;;
6149;SDS011;3106;42.670;23.318;2023-02-28T03:31:14;76.37;;;26.37;;
6149;SDS011;3106;42.670;23.318;2023-02-28T03:33:46;84.30;;;24.90;;
6149;SDS011;3106;42.670;23.318;2023-02-28T03:36:21;65.13;;;25.73;;
6149;SDS011;3106;42.670;23.318;2023-02-28T03:38:54;74.77;;;27.97;;
6149;SDS011;3106;42.670;23.318;2023-02-28T03:41:29;64.80;;;24.93;;
6149;SDS011;3106;42.670;23.318;2023-02-28T03:44:00;76.40;;;26.40;;
6149;SDS011;3106;42.670;23.318;2023-02-28T03:46:33;65.10;;;25.53;;
6149;SDS011;3106;42.670;23.318;2023-02-28T03:49:06;63.40;;;25.30;;
6149;SDS011;3106;42.670;23.318;2023-02-28T03:51:41;67.30;;;24.37;;
6149;SDS011;3106;42.670;23.318;2023-02-28T03:54:11;59.80;;;23.77;;
6149;SDS011;3106;42.670;23.318;2023-02-28T03:56:43;58.40;;;23.50;;
6149;SDS011;3106;42.670;23.318;2023-02-28T03:59:16;56.07;;;23.10;;
6149;SDS011;3106;42.670;23.318;2023-02-28T04:01:45;61.83;;;23.37;;
6149;SDS011;3106;42.670;23.318;2023-02-28T04:04:15;50.83;;;22.20;;
6149;SDS011;3106;42.670;23.318;2023-02-28T04:06:44;60.20;;;23.87;;
6149;SDS011;3106;42.670;23.318;2023-02-28T04:09:11;62.40;;;23.10;;
6149;SDS011;3106;42.670;23.318;2023-02-28T04:11:40;59.70;;;23.83;;
6149;SDS011;3106;42.670;23.318;2023-02-28T04:14:10;61.90;;;23.83;;
6149;SDS011;3106;42.670;23.318;2023-02-28T04:16:38;62.40;;;22.90;;
6149;SDS011;3106;42.670;23.318;2023-02-28T04:19:07;71.73;;;25.43;;
6149;SDS011;3106;42.670;23.318;2023-02-28T04:21:36;73.83;;;25.10;;
6149;SDS011;3106;42.670;23.318;2023-02-28T04:24:07;70.60;;;26.87;;
6149;SDS011;3106;42.670;23.318;2023-02-28T04:26:39;83.93;;;26.63;;
6149;SDS011;3106;42.670;23.318;2023-02-28T04:29:08;86.80;;;23.50;;
6149;SDS011;3106;42.670;23.318;2023-02-28T04:31:36;68.27;;;24.20;;
6149;SDS011;3106;42.670;23.318;2023-02-28T04:34:03;61.37;;;23.57;;
6149;SDS011;3106;42.670;23.318;2023-02-28T04:36:30;61.63;;;20.83;;
6149;SDS011;3106;42.670;23.318;2023-02-28T04:38:56;60.40;;;22.33;;
6149;SDS011;3106;42.670;23.318;2023-02-28T04:41:25;63.13;;;20.30;;
6149;SDS011;3106;42.670;23.318;2023-02-28T04:43:52;54.80;;;20.90;;
6149;SDS011;3106;42.670;23.318;2023-02-28T04:46:21;59.20;;;22.40;;
6149;SDS011;3106;42.670;23.318;2023-02-28T04:48:48;57.60;;;21.73;;
6149;SDS011;3106;42.670;23.318;2023-02-28T04:51:16;58.70;;;22.73;;
6149;SDS011;3106;42.670;23.318;2023-02-28T04:53:44;77.97;;;21.00;;
6149;SDS011;3106;42.670;23.318;2023-02-28T04:56:11;58.70;;;20.93;;
6149;SDS011;3106;42.670;23.318;2023-02-28T04:58:40;65.60;;;21.33;;
6149;SDS011;3106;42.670;23.318;2023-02-28T05:01:16;60.30;;;22.07;;
6149;SDS011;3106;42.670;23.318;2023-02-28T05:03:44;54.97;;;21.53;;
6149;SDS011;3106;42.670;23.318;2023-02-28T05:06:11;61.03;;;21.57;;
6149;SDS011;3106;42.670;23.318;2023-02-28T05:08:39;89.73;;;21.23;;
6149;SDS011;3106;42.670;23.318;2023-02-28T05:11:06;97.43;;;21.43;;
6149;SDS011;3106;42.670;23.318;2023-02-28T05:13:38;61.90;;;20.93;;
6149;SDS011;3106;42.670;23.318;2023-02-28T05:16:07;55.20;;;21.93;;
6149;SDS011;3106;42.670;23.318;2023-02-28T05:18:33;78.67;;;23.23;;
6149;SDS011;3106;42.670;23.318;2023-02-28T05:21:00;65.63;;;24.47;;
6149;SDS011;3106;42.670;23.318;2023-02-28T05:23:28;64.30;;;24.77;;
6149;SDS011;3106;42.670;23.318;2023-02-28T05:25:55;59.80;;;23.37;;
6149;SDS011;3106;42.670;23.318;2023-02-28T05:28:22;59.60;;;22.37;;
6149;SDS011;3106;42.670;23.318;2023-02-28T05:30:51;64.47;;;22.60;;
6149;SDS011;3106;42.670;23.318;2023-02-28T05:33:20;55.40;;;23.20;;
6149;SDS011;3106;42.670;23.318;2023-02-28T05:35:46;64.20;;;23.13;;
6149;SDS011;3106;42.670;23.318;2023-02-28T05:38:13;59.03;;;22.90;;
6149;SDS011;3106;42.670;23.318;2023-02-28T05:40:40;64.00;;;24.10;;
6149;SDS011;3106;42.670;23.318;2023-02-28T05:43:09;65.93;;;24.20;;
6149;SDS011;3106;42.670;23.318;2023-02-28T05:45:37;53.43;;;22.10;;
6149;SDS011;3106;42.670;23.318;2023-02-28T05:48:04;51.10;;;20.67;;
6149;SDS011;3106;42.670;23.318;2023-02-28T05:50:32;64.23;;;22.37;;
6149;SDS011;3106;42.670;23.318;2023-02-28T05:53:01;62.03;;;23.33;;
6149;SDS011;3106;42.670;23.318;2023-02-28T05:55:28;56.07;;;24.13;;
6149;SDS011;3106;42.670;23.318;2023-02-28T05:57:55;63.90;;;23.33;;
6149;SDS011;3106;42.670;23.318;2023-02-28T06:00:22;62.37;;;22.93;;
6149;SDS011;3106;42.670;23.318;2023-02-28T06:02:49;62.93;;;23.67;;
6149;SDS011;3106;42.670;23.318;2023-02-28T06:05:18;62.97;;;23.90;;
6149;SDS011;3106;42.670;23.318;2023-02-28T06:07:46;59.30;;;24.00;;
6149;SDS011;3106;42.670;23.318;2023-02-28T06:10:13;64.80;;;25.07;;
6149;SDS011;3106;42.670;23.318;2023-02-28T06:12:40;68.80;;;24.80;;
6149;SDS011;3106;42.670;23.318;2023-02-28T06:15:09;66.40;;;27.10;;
6149;SDS011;3106;42.670;23.318;2023-02-28T06:17:39;68.03;;;25.57;;
6149;SDS011;3106;42.670;23.318;2023-02-28T06:20:07;79.27;;;26.00;;
6149;SDS011;3106;42.670;23.318;2023-02-28T06:22:38;71.57;;;26.67;;
6149;SDS011;3106;42.670;23.318;2023-02-28T06:25:06;84.60;;;28.50;;
6149;SDS011;3106;42.670;23.318;2023-02-28T06:27:34;76.83;;;26.87;;
6149;SDS011;3106;42.670;23.318;2023-02-28T06:30:00;64.20;;;24.47;;
6149;SDS011;3106;42.670;23.318;2023-02-28T06:32:27;72.03;;;25.70;;
6149;SDS011;3106;42.670;23.318;2023-02-28T06:34:54;60.07;;;25.50;;
6149;SDS011;3106;42.670;23.318;2023-02-28T06:37:23;64.37;;;25.13;;
6149;SDS011;3106;42.670;23.318;2023-02-28T06:39:53;69.63;;;26.73;;
6149;SDS011;3106;42.670;23.318;2023-02-28T06:42:22;73.57;;;24.73;;
6149;SDS011;3106;42.670;23.318;2023-02-28T06:44:54;59.07;;;24.10;;
6149;SDS011;3106;42.670;23.318;2023-02-28T06:47:21;62.87;;;24.27;;
6149;SDS011;3106;42.670;23.318;2023-02-28T06:49:48;58.23;;;23.90;;
6149;SDS011;3106;42.670;23.318;2023-02-28T06:52:15;57.67;;;25.20;;
6149;SDS011;3106;42.670;23.318;2023-02-28T06:54:42;63.53;;;26.50;;
6149;SDS011;3106;42.670;23.318;2023-02-28T06:57:08;62.50;;;25.87;;
6149;SDS011;3106;42.670;23.318;2023-02-28T06:59:37;65.97;;;28.23;;
6149;SDS011;3106;42.670;23.318;2023-02-28T07:02:03;67.90;;;27.00;;
6149;SDS011;3106;42.670;23.318;2023-02-28T07:04:34;61.83;;;26.70;;
6149;SDS011;3106;42.670;23.318;2023-02-28T07:07:01;66.17;;;25.70;;
6149;SDS011;3106;42.670;23.318;2023-02-28T07:09:28;67.27;;;27.03;;
6149;SDS011;3106;42.670;23.318;2023-02-28T07:11:55;59.57;;;26.30;;
6149;SDS011;3106;42.670;23.318;2023-02-28T07:14:22;71.00;;;27.20;;
6149;SDS011;3106;42.670;23.318;2023-02-28T07:16:50;58.27;;;24.60;;
6149;SDS011;3106;42.670;23.318;2023-02-28T07:19:17;63.73;;;24.30;;
6149;SDS011;3106;42.670;23.318;2023-02-28T07:21:44;57.40;;;23.17;;
6149;SDS011;3106;42.670;23.318;2023-02-28T07:24:11;60.97;;;25.10;;
6149;SDS011;3106;42.670;23.318;2023-02-28T07:26:40;66.17;;;25.93;;
6149;SDS011;3106;42.670;23.318;2023-02-28T07:29:07;64.00;;;27.33;;
6149;SDS011;3106;42.670;23.318;2023-02-28T07:31:34;72.67;;;27.50;;
6149;SDS011;3106;42.670;23.318;2023-02-28T07:34:02;65.83;;;25.87;;
6149;SDS011;3106;42.670;23.318;2023-02-28T07:36:29;63.90;;;27.73;;
6149;SDS011;3106;42.670;23.318;2023-02-28T07:38:56;70.53;;;28.27;;
6149;SDS011;3106;42.670;23.318;2023-02-28T07:41:25;60.53;;;25.70;;
6149;SDS011;3106;42.670;23.318;2023-02-28T07:43:53;61.23;;;26.63;;
6149;SDS011;3106;42.670;23.318;2023-02-28T07:46:20;64.70;;;27.03;;
6149;SDS011;3106;42.670;23.318;2023-02-28T07:48:47;60.50;;;26.43;;
6149;SDS011;3106;42.670;23.318;2023-02-28T07:51:17;65.73;;;27.27;;
6149;SDS011;3106;42.670;23.318;2023-02-28T07:53:44;72.10;;;28.03;;
6149;SDS011;3106;42.670;23.318;2023-02-28T07:56:13;63.90;;;27.40;;
6149;SDS011;3106;42.670;23.318;2023-02-28T07:58:40;69.77;;;27.00;;
6149;SDS011;3106;42.670;23.318;2023-02-28T08:01:07;59.10;;;24.80;;
6149;SDS011;3106;42.670;23.318;2023-02-28T08:03:35;57.70;;;25.50;;
6149;SDS011;3106;42.670;23.318;2023-02-28T08:06:02;65.90;;;26.43;;
6149;SDS011;3106;42.670;23.318;2023-02-28T08:08:31;63.37;;;26.40;;
6149;SDS011;3106;42.670;23.318;2023-02-28T08:10:58;56.43;;;25.67;;
6149;SDS011;3106;42.670;23.318;2023-02-28T08:13:26;69.47;;;25.70;;
6149;SDS011;3106;42.670;23.318;2023-02-28T08:15:54;62.60;;;25.70;;
6149;SDS011;3106;42.670;23.318;2023-02-28T08:18:21;52.40;;;23.27;;
6149;SDS011;3106;42.670;23.318;2023-02-28T08:20:49;56.50;;;21.87;;
6149;SDS011;3106;42.670;23.318;2023-02-28T08:23:15;50.30;;;21.57;;
6149;SDS011;3106;42.670;23.318;2023-02-28T08:25:44;52.10;;;22.20;;
6149;SDS011;3106;42.670;23.318;2023-02-28T08:28:11;47.93;;;21.23;;
6149;SDS011;3106;42.670;23.318;2023-02-28T08:30:37;48.93;;;22.37;;
6149;SDS011;3106;42.670;23.318;2023-02-28T08:33:06;52.03;;;23.23;;
6149;SDS011;3106;42.670;23.318;2023-02-28T08:35:35;56.77;;;24.70;;
6149;SDS011;3106;42.670;23.318;2023-02-28T08:38:02;57.57;;;26.13;;
6149;SDS011;3106;42.670;23.318;2023-02-28T08:40:28;54.33;;;24.37;;
6149;SDS011;3106;42.670;23.318;2023-02-28T08:42:57;61.80;;;25.67;;
6149;SDS011;3106;42.670;23.318;2023-02-28T08:45:24;63.13;;;24.60;;
6149;SDS011;3106;42.670;23.318;2023-02-28T08:47:51;54.93;;;24.00;;
6149;SDS011;3106;42.670;23.318;2023-02-28T08:50:18;54.50;;;25.30;;
6149;SDS011;3106;42.670;23.318;2023-02-28T08:52:45;57.07;;;25.43;;
6149;SDS011;3106;42.670;23.318;2023-02-28T08:55:12;57.53;;;24.53;;
6149;SDS011;3106;42.670;23.318;2023-02-28T08:57:39;55.43;;;25.80;;
6149;SDS011;3106;42.670;23.318;2023-02-28T09:00:10;64.33;;;26.17;;
6149;SDS011;3106;42.670;23.318;2023-02-28T09:02:38;58.67;;;26.03;;
6149;SDS011;3106;42.670;23.318;2023-02-28T09:05:05;60.97;;;25.40;;
6149;SDS011;3106;42.670;23.318;2023-02-28T09:07:33;64.93;;;28.10;;
6149;SDS011;3106;42.670;23.318;2023-02-28T09:09:59;75.70;;;31.60;;
6149;SDS011;3106;42.670;23.318;2023-02-28T09:12:27;67.10;;;31.00;;
6149;SDS011;3106;42.670;23.318;2023-02-28T09:14:58;68.33;;;30.00;;
6149;SDS011;3106;42.670;23.318;2023-02-28T09:17:26;65.90;;;32.10;;
6149;SDS011;3106;42.670;23.318;2023-02-28T09:19:53;75.00;;;32.27;;
6149;SDS011;3106;42.670;23.318;2023-02-28T09:22:19;71.93;;;30.70;;
6149;SDS011;3106;42.670;23.318;2023-02-28T09:24:46;76.47;;;32.50;;
6149;SDS011;3106;42.670;23.318;2023-02-28T09:27:13;80.40;;;34.20;;
6149;SDS011;3106;42.670;23.318;2023-02-28T09:29:40;85.20;;;34.33;;
6149;SDS011;3106;42.670;23.318;2023-02-28T09:32:06;90.83;;;34.83;;
6149;SDS011;3106;42.670;23.318;2023-02-28T09:34:34;94.73;;;35.07;;
6149;SDS011;3106;42.670;23.318;2023-02-28T09:37:02;80.60;;;33.90;;
6149;SDS011;3106;42.670;23.318;2023-02-28T09:39:29;101.87;;;34.93;;
6149;SDS011;3106;42.670;23.318;2023-02-28T09:41:56;77.53;;;34.07;;
6149;SDS011;3106;42.670;23.318;2023-02-28T09:44:26;80.53;;;34.00;;
6149;SDS011;3106;42.670;23.318;2023-02-28T09:46:57;82.63;;;34.37;;
6149;SDS011;3106;42.670;23.318;2023-02-28T09:49:30;80.10;;;34.37;;
6149;SDS011;3106;42.670;23.318;2023-02-28T09:52:04;84.80;;;35.80;;
6149;SDS011;3106;42.670;23.318;2023-02-28T09:54:34;74.00;;;32.10;;
6149;SDS011;3106;42.670;23.318;2023-02-28T09:57:06;76.50;;;29.03;;
6149;SDS011;3106;42.670;23.318;2023-02-28T09:59:40;89.63;;;32.80;;
6149;SDS011;3106;42.670;23.318;2023-02-28T10:02:17;73.90;;;30.47;;
6149;SDS011;3106;42.670;23.318;2023-02-28T10:04:57;70.87;;;27.93;;
6149;SDS011;3106;42.670;23.318;2023-02-28T10:07:34;71.80;;;28.43;;
6149;SDS011;3106;42.670;23.318;2023-02-28T10:10:14;45.17;;;21.63;;
6149;SDS011;3106;42.670;23.318;2023-02-28T10:12:46;37.27;;;15.50;;
6149;SDS011;3106;42.670;23.318;2023-02-28T10:15:15;39.70;;;15.33;;
6149;SDS011;3106;42.670;23.318;2023-02-28T10:17:43;35.93;;;13.97;;
6149;SDS011;3106;42.670;23.318;2023-02-28T10:20:17;32.40;;;14.47;;
6149;SDS011;3106;42.670;23.318;2023-02-28T10:22:50;44.97;;;13.07;;
6149;SDS011;3106;42.670;23.318;2023-02-28T10:25:22;38.53;;;13.30;;
6149;SDS011;3106;42.670;23.318;2023-02-28T10:27:52;29.57;;;13.53;;
6149;SDS011;3106;42.670;23.318;2023-02-28T10:30:20;37.90;;;14.57;;
6149;SDS011;3106;42.670;23.318;2023-02-28T10:32:48;41.73;;;14.60;;
6149;SDS011;3106;42.670;23.318;2023-02-28T10:35:21;33.33;;;12.60;;
6149;SDS011;3106;42.670;23.318;2023-02-28T10:37:50;32.07;;;13.03;;
6149;SDS011;3106;42.670;23.318;2023-02-28T10:40:28;33.40;;;12.93;;
6149;SDS011;3106;42.670;23.318;2023-02-28T10:42:57;35.93;;;11.30;;
6149;SDS011;3106;42.670;23.318;2023-02-28T10:45:26;27.77;;;10.63;;
6149;SDS011;3106;42.670;23.318;2023-02-28T10:47:57;34.80;;;12.33;;
6149;SDS011;3106;42.670;23.318;2023-02-28T10:50:32;28.57;;;11.00;;
6149;SDS011;3106;42.670;23.318;2023-02-28T10:55:58;32.07;;;11.00;;
6149;SDS011;3106;42.670;23.318;2023-02-28T10:58:28;29.40;;;11.40;;
6149;SDS011;3106;42.670;23.318;2023-02-28T11:00:57;40.40;;;11.73;;
6149;SDS011;3106;42.670;23.318;2023-02-28T11:03:29;37.53;;;12.37;;
6149;SDS011;3106;42.670;23.318;2023-02-28T11:06:03;41.27;;;12.77;;
6149;SDS011;3106;42.670;23.318;2023-02-28T11:08:32;28.07;;;10.67;;
6149;SDS011;3106;42.670;23.318;2023-02-28T11:11:03;27.57;;;11.93;;
6149;SDS011;3106;42.670;23.318;2023-02-28T11:13:34;37.43;;;13.93;;
6149;SDS011;3106;42.670;23.318;2023-02-28T11:16:03;34.13;;;12.23;;
6149;SDS011;3106;42.670;23.318;2023-02-28T11:18:34;30.10;;;11.83;;
6149;SDS011;3106;42.670;23.318;2023-02-28T11:21:07;29.90;;;10.80;;
6149;SDS011;3106;42.670;23.318;2023-02-28T11:23:42;34.00;;;13.03;;
6149;SDS011;3106;42.670;23.318;2023-02-28T11:26:09;37.00;;;11.93;;
6149;SDS011;3106;42.670;23.318;2023-02-28T11:28:37;30.90;;;12.50;;
6149;SDS011;3106;42.670;23.318;2023-02-28T11:31:15;30.33;;;11.90;;
6149;SDS011;3106;42.670;23.318;2023-02-28T11:33:45;37.03;;;12.40;;
6149;SDS011;3106;42.670;23.318;2023-02-28T11:36:18;30.53;;;12.17;;
6149;SDS011;3106;42.670;23.318;2023-02-28T11:38:47;29.30;;;13.17;;
6149;SDS011;3106;42.670;23.318;2023-02-28T11:41:28;35.03;;;13.30;;
6149;SDS011;3106;42.670;23.318;2023-02-28T11:44:18;31.63;;;12.50;;
6149;SDS011;3106;42.670;23.318;2023-02-28T11:46:54;26.50;;;11.60;;
6149;SDS011;3106;42.670;23.318;2023-02-28T11:49:30;32.43;;;13.00;;
6149;SDS011;3106;42.670;23.318;2023-02-28T11:52:06;36.70;;;13.23;;
6149;SDS011;3106;42.670;23.318;2023-02-28T11:54:59;35.60;;;13.43;;
6149;SDS011;3106;42.670;23.318;2023-02-28T11:57:43;30.90;;;12.50;;
6149;SDS011;3106;42.670;23.318;2023-02-28T12:00:26;35.13;;;13.27;;
6149;SDS011;3106;42.670;23.318;2023-02-28T12:03:11;31.80;;;13.40;;
6149;SDS011;3106;42.670;23.318;2023-02-28T12:05:49;28.27;;;12.97;;
6149;SDS011;3106;42.670;23.318;2023-02-28T12:08:30;29.77;;;13.47;;
6149;SDS011;3106;42.670;23.318;2023-02-28T12:11:10;28.30;;;12.77;;
6149;SDS011;3106;42.670;23.318;2023-02-28T12:13:46;50.60;;;13.20;;
6149;SDS011;3106;42.670;23.318;2023-02-28T12:16:27;36.50;;;11.87;;
6149;SDS011;3106;42.670;23.318;2023-02-28T12:19:13;30.23;;;13.20;;
6149;SDS011;3106;42.670;23.318;2023-02-28T12:21:53;35.87;;;13.47;;
6149;SDS011;3106;42.670;23.318;2023-02-28T12:24:42;35.50;;;12.13;;
6149;SDS011;3106;42.670;23.318;2023-02-28T12:27:17;29.27;;;12.60;;
6149;SDS011;3106;42.670;23.318;2023-02-28T12:29:48;32.30;;;12.67;;
6149;SDS011;3106;42.670;23.318;2023-02-28T12:32:21;34.87;;;12.60;;
6149;SDS011;3106;42.670;23.318;2023-02-28T12:34:52;32.40;;;12.13;;
6149;SDS011;3106;42.670;23.318;2023-02-28T12:37:24;25.60;;;11.87;;
6149;SDS011;3106;42.670;23.318;2023-02-28T12:40:00;38.47;;;13.63;;
6149;SDS011;3106;42.670;23.318;2023-02-28T12:42:31;33.23;;;12.20;;
6149;SDS011;3106;42.670;23.318;2023-02-28T12:45:04;34.20;;;14.00;;
6149;SDS011;3106;42.670;23.318;2023-02-28T12:47:36;29.67;;;12.90;;
6149;SDS011;3106;42.670;23.318;2023-02-28T12:50:07;23.80;;;12.47;;
6149;SDS011;3106;42.670;23.318;2023-02-28T12:52:39;32.37;;;12.30;;
6149;SDS011;3106;42.670;23.318;2023-02-28T12:55:15;41.90;;;12.77;;
6149;SDS011;3106;42.670;23.318;2023-02-28T12:57:50;28.50;;;13.17;;
6149;SDS011;3106;42.670;23.318;2023-02-28T13:00:25;32.60;;;11.47;;
6149;SDS011;3106;42.670;23.318;2023-02-28T13:03:12;32.83;;;11.73;;
6149;SDS011;3106;42.670;23.318;2023-02-28T13:06:05;40.87;;;13.07;;
6149;SDS011;3106;42.670;23.318;2023-02-28T13:11:29;28.27;;;11.53;;
6149;SDS011;3106;42.670;23.318;2023-02-28T13:13:59;39.73;;;13.03;;
6149;SDS011;3106;42.670;23.318;2023-02-28T13:16:28;40.53;;;13.30;;
6149;SDS011;3106;42.670;23.318;2023-02-28T13:19:15;34.33;;;12.20;;
6149;SDS011;3106;42.670;23.318;2023-02-28T13:21:45;30.07;;;12.17;;
6149;SDS011;3106;42.670;23.318;2023-02-28T13:24:35;37.73;;;14.20;;
6149;SDS011;3106;42.670;23.318;2023-02-28T13:30:02;30.43;;;12.07;;
6149;SDS011;3106;42.670;23.318;2023-02-28T13:33:23;40.00;;;11.23;;
6149;SDS011;3106;42.670;23.318;2023-02-28T13:38:51;35.90;;;11.10;;
6149;SDS011;3106;42.670;23.318;2023-02-28T13:44:13;26.87;;;9.60;;
6149;SDS011;3106;42.670;23.318;2023-02-28T13:49:56;19.70;;;10.10;;
6149;SDS011;3106;42.670;23.318;2023-02-28T13:52:43;28.67;;;10.77;;
6149;SDS011;3106;42.670;23.318;2023-02-28T13:55:24;24.37;;;9.50;;
6149;SDS011;3106;42.670;23.318;2023-02-28T13:58:05;31.30;;;9.70;;
6149;SDS011;3106;42.670;23.318;2023-02-28T14:00:48;24.70;;;8.73;;
6149;SDS011;3106;42.670;23.318;2023-02-28T14:03:37;30.73;;;10.03;;
6149;SDS011;3106;42.670;23.318;2023-02-28T14:06:22;26.67;;;10.20;;
6149;SDS011;3106;42.670;23.318;2023-02-28T14:08:55;33.73;;;10.77;;
6149;SDS011;3106;42.670;23.318;2023-02-28T14:11:30;22.93;;;10.43;;
6149;SDS011;3106;42.670;23.318;2023-02-28T14:13:59;24.73;;;10.37;;
6149;SDS011;3106;42.670;23.318;2023-02-28T14:16:34;24.87;;;10.23;;
6149;SDS011;3106;42.670;23.318;2023-02-28T14:19:09;25.53;;;9.43;;
6149;SDS011;3106;42.670;23.318;2023-02-28T14:21:39;38.67;;;10.70;;
6149;SDS011;3106;42.670;23.318;2023-02-28T14:24:20;34.97;;;10.77;;
6149;SDS011;3106;42.670;23.318;2023-02-28T14:36:03;24.17;;;10.50;;
6149;SDS011;3106;42.670;23.318;2023-02-28T14:38:36;25.67;;;10.63;;
6149;SDS011;3106;42.670;23.318;2023-02-28T14:41:12;34.57;;;10.97;;
6149;SDS011;3106;42.670;23.318;2023-02-28T14:43:49;22.80;;;9.27;;
6149;SDS011;3106;42.670;23.318;2023-02-28T14:46:17;26.73;;;10.90;;
6149;SDS011;3106;42.670;23.318;2023-02-28T14:48:46;31.50;;;11.30;;
6149;SDS011;3106;42.670;23.318;2023-02-28T14:51:17;28.87;;;9.53;;
6149;SDS011;3106;42.670;23.318;2023-02-28T14:53:47;30.67;;;10.90;;
6149;SDS011;3106;42.670;23.318;2023-02-28T14:56:23;24.30;;;10.70;;
6149;SDS011;3106;42.670;23.318;2023-02-28T14:58:52;34.43;;;9.93;;
6149;SDS011;3106;42.670;23.318;2023-02-28T15:04:24;25.03;;;10.80;;
6149;SDS011;3106;42.670;23.318;2023-02-28T15:07:09;33.63;;;10.90;;
6149;SDS011;3106;42.670;23.318;2023-02-28T15:09:37;28.07;;;10.87;;
6149;SDS011;3106;42.670;23.318;2023-02-28T15:12:04;29.70;;;8.87;;
6149;SDS011;3106;42.670;23.318;2023-02-28T15:14:31;28.37;;;9.53;;
6149;SDS011;3106;42.670;23.318;2023-02-28T15:16:59;21.13;;;8.77;;
6149;SDS011;3106;42.670;23.318;2023-02-28T15:19:31;31.83;;;9.53;;
6149;SDS011;3106;42.670;23.318;2023-02-28T15:22:02;32.63;;;10.27;;
6149;SDS011;3106;42.670;23.318;2023-02-28T15:24:35;27.73;;;9.60;;
6149;SDS011;3106;42.670;23.318;2023-02-28T15:27:05;25.90;;;9.10;;
6149;SDS011;3106;42.670;23.318;2023-02-28T15:29:41;20.03;;;8.93;;
6149;SDS011;3106;42.670;23.318;2023-02-28T15:32:20;26.63;;;9.30;;
6149;SDS011;3106;42.670;23.318;2023-02-28T15:34:52;25.57;;;9.40;;
6149;SDS011;3106;42.670;23.318;2023-02-28T15:37:33;23.13;;;8.87;;